createdAt,value
2019-04-24T00:02:21.705Z,99.90
2019-04-24T00:05:03.532Z,99.90
2019-04-24T00:07:12.700Z,99.90
2019-04-24T00:09:52.244Z,99.90
2019-04-24T00:12:38.037Z,99.90
2019-04-24T00:18:02.132Z,99.90
2019-04-24T00:20:35.456Z,99.90
2019-04-24T00:23:06.206Z,99.90
2019-04-24T00:30:40.963Z,99.90
2019-04-24T00:36:30.985Z,99.90
2019-04-24T00:38:42.635Z,99.90
2019-04-24T00:54:05.572Z,99.90
2019-04-24T00:59:17.902Z,99.90
2019-04-24T01:02:12.619Z,99.90
2019-04-24T01:05:07.487Z,99.90
2019-04-24T01:12:43.273Z,99.90
2019-04-24T01:17:39.474Z,99.90
2019-04-24T01:25:37.689Z,99.90
2019-04-24T01:31:02.593Z,99.90
2019-04-24T01:33:26.074Z,99.90
2019-04-24T01:39:09.425Z,99.90
2019-04-24T01:41:26.425Z,99.90
2019-04-24T01:44:09.417Z,99.90
2019-04-24T01:46:34.988Z,99.90
2019-04-24T01:51:55.768Z,99.90
2019-04-24T01:54:33.384Z,99.90
2019-04-24T01:59:42.325Z,99.90
2019-04-24T02:02:08.189Z,99.90
2019-04-24T02:04:38.926Z,99.90
2019-04-24T02:07:25.381Z,99.90
2019-04-24T02:10:26.870Z,99.90
2019-04-24T02:12:52.773Z,99.90
2019-04-24T02:15:21.311Z,99.90
2019-04-24T02:20:31.177Z,99.90
2019-04-24T02:39:04.861Z,99.90
2019-04-24T02:44:35.521Z,99.90
2019-04-24T02:46:41.747Z,99.90
2019-04-24T02:54:41.491Z,99.90
2019-04-24T02:57:10.226Z,99.90
2019-04-24T02:59:24.789Z,99.90
2019-04-24T03:02:13.470Z,99.90
2019-04-24T03:07:32.961Z,99.90
2019-04-24T03:15:17.097Z,99.90
2019-04-24T03:17:44.297Z,99.90
2019-04-24T03:20:19.112Z,99.90
2019-04-24T03:22:56.340Z,99.90
2019-04-24T03:44:14.200Z,99.90
2019-04-24T03:46:06.337Z,99.90
2019-04-24T03:52:01.007Z,99.90
2019-04-24T03:54:14.857Z,99.90
2019-04-24T03:56:50.883Z,99.90
2019-04-24T04:02:47.268Z,99.90
2019-04-24T04:05:12.083Z,99.90
2019-04-24T04:07:40.254Z,99.90
2019-04-24T04:10:15.829Z,99.90
2019-04-24T04:15:20.451Z,99.90
2019-04-24T04:29:13.775Z,99.90
2019-04-24T04:32:24.102Z,99.90
2019-04-24T04:34:30.920Z,99.90
2019-04-24T04:42:31.656Z,99.90
2019-04-24T04:47:27.327Z,99.90
2019-04-24T04:50:17.834Z,99.90
2019-04-24T04:53:12.994Z,99.90
2019-04-24T05:01:26.748Z,99.90
2019-04-24T05:11:46.832Z,99.90
2019-04-24T05:21:54.683Z,99.90
2019-04-24T05:27:16.377Z,99.90
2019-04-24T05:29:40.729Z,99.90
2019-04-24T05:34:47.369Z,99.90
2019-04-24T05:37:45.057Z,99.90
2019-04-24T05:42:46.676Z,99.90
2019-04-24T05:45:15.203Z,99.90
2019-04-24T05:51:36.359Z,99.90
2019-04-24T05:55:51.030Z,99.90
2019-04-24T05:58:19.606Z,99.90
2019-04-24T06:01:35.939Z,99.90
2019-04-24T06:04:51.401Z,99.90
2019-04-24T06:07:16.402Z,99.90
2019-04-24T06:12:53.640Z,99.90
2019-04-24T06:29:19.149Z,99.90
2019-04-24T06:42:33.845Z,99.90
2019-04-24T06:45:13.446Z,99.90
2019-04-24T06:50:17.316Z,99.90
2019-04-24T06:52:46.276Z,99.90
2019-04-24T06:55:13.031Z,99.90
2019-04-24T06:57:42.650Z,99.90
2019-04-24T07:03:35.509Z,99.90
2019-04-24T07:06:22.479Z,99.90
2019-04-24T07:09:06.247Z,99.90
2019-04-24T07:11:34.484Z,99.90
2019-04-24T07:14:09.947Z,99.90
2019-04-24T07:17:17.018Z,99.90
2019-04-24T07:22:18.309Z,99.90
2019-04-24T07:25:03.314Z,99.90
2019-04-24T07:27:39.992Z,99.90
2019-04-24T07:30:17.300Z,99.90
2019-04-24T07:35:45.239Z,99.90
2019-04-24T07:41:03.277Z,99.90
2019-04-24T07:43:30.574Z,99.90
2019-04-24T07:46:06.509Z,99.90
2019-04-24T07:51:21.037Z,99.90
2019-04-24T07:59:43.305Z,99.90
2019-04-24T08:12:41.816Z,99.90
2019-04-24T08:20:39.078Z,99.90
2019-04-24T08:22:55.498Z,99.90
2019-04-24T08:25:39.082Z,99.90
2019-04-24T08:28:07.433Z,99.20
2019-04-24T08:30:56.839Z,98.50
2019-04-24T08:33:30.765Z,97.90
2019-04-24T08:36:04.326Z,97.60
2019-04-24T08:38:42.463Z,97.50
2019-04-24T08:41:11.555Z,95.90
2019-04-24T08:46:34.371Z,94.10
2019-04-24T08:49:05.543Z,92.10
2019-04-24T08:52:03.547Z,91.70
2019-04-24T08:54:10.929Z,90.30
2019-04-24T08:57:06.468Z,89.50
2019-04-24T09:02:16.398Z,85.00
2019-04-24T09:05:00.959Z,86.00
2019-04-24T09:07:54.640Z,89.90
2019-04-24T09:10:40.572Z,87.50
2019-04-24T09:13:17.376Z,89.30
2019-04-24T09:18:37.318Z,86.90
2019-04-24T09:24:23.230Z,89.50
2019-04-24T09:37:00.601Z,87.90
2019-04-24T09:40:25.326Z,89.50
2019-04-24T09:43:08.654Z,89.00
2019-04-24T09:47:54.966Z,86.30
2019-04-24T09:50:21.214Z,89.30
2019-04-24T09:52:57.550Z,88.30
2019-04-24T09:55:35.929Z,84.10
2019-04-24T09:58:13.818Z,87.20
2019-04-24T10:03:38.837Z,89.60
2019-04-24T10:08:43.039Z,88.50
2019-04-24T10:11:22.083Z,91.30
2019-04-24T10:16:55.515Z,93.20
2019-04-24T10:25:21.725Z,92.30
2019-04-24T10:31:00.791Z,92.70
2019-04-24T10:33:40.016Z,93.20
2019-04-24T10:36:12.157Z,94.40
2019-04-24T10:39:42.965Z,94.50
2019-04-24T10:49:54.444Z,97.90
2019-04-24T10:52:31.032Z,97.70
2019-04-24T10:55:06.126Z,98.50
2019-04-24T10:57:50.085Z,98.90
2019-04-24T11:00:17.049Z,98.80
2019-04-24T11:03:17.133Z,99.80
2019-04-24T11:05:56.115Z,98.80
2019-04-24T11:08:49.615Z,97.80
2019-04-24T11:14:17.716Z,99.90
2019-04-24T11:20:19.858Z,99.90
2019-04-24T11:26:10.738Z,99.70
2019-04-24T11:28:57.569Z,97.70
2019-04-24T11:32:16.061Z,99.90
2019-04-24T11:35:04.523Z,99.50
2019-04-24T11:37:15.076Z,97.00
2019-04-24T11:43:01.517Z,91.10
2019-04-24T11:45:41.258Z,86.30
2019-04-24T11:48:40.205Z,85.30
2019-04-24T11:51:25.667Z,84.70
2019-04-24T11:53:36.910Z,85.40
2019-04-24T11:56:31.201Z,86.00
2019-04-24T11:58:47.808Z,84.90
2019-04-24T12:02:13.437Z,84.30
2019-04-24T12:05:04.922Z,84.80
2019-04-24T12:07:54.283Z,82.80
2019-04-24T12:10:21.067Z,83.90
2019-04-24T12:13:34.875Z,81.00
2019-04-24T12:18:46.654Z,86.50
2019-04-24T12:26:23.197Z,89.60
2019-04-24T12:32:05.919Z,90.70
2019-04-24T12:34:47.622Z,90.30
2019-04-24T12:37:13.664Z,90.90
2019-04-24T12:40:07.196Z,91.00
2019-04-24T12:42:50.863Z,91.90
2019-04-24T12:45:10.323Z,91.30
2019-04-24T12:47:40.916Z,90.60
2019-04-24T12:50:17.675Z,92.90
2019-04-24T12:52:57.887Z,90.90
2019-04-24T12:55:52.620Z,90.20
2019-04-24T13:01:38.476Z,90.60
2019-04-24T13:06:33.424Z,91.50
2019-04-24T13:09:35.457Z,92.40
2019-04-24T13:12:03.722Z,92.50
2019-04-24T13:14:55.914Z,92.20
2019-04-24T13:17:37.451Z,93.10
2019-04-24T13:22:02.914Z,92.20
2019-04-24T13:25:03.222Z,92.90
2019-04-24T13:31:08.201Z,91.70
2019-04-24T13:33:23.739Z,92.10
2019-04-24T13:36:05.611Z,92.60
2019-04-24T13:38:49.206Z,92.30
2019-04-24T13:41:02.760Z,92.40
2019-04-24T13:44:00.211Z,91.50
2019-04-24T13:51:13.789Z,92.20
2019-04-24T13:54:03.834Z,91.50
2019-04-24T13:56:24.637Z,92.60
2019-04-24T13:59:01.968Z,91.80
2019-04-24T14:01:43.337Z,92.50
2019-04-24T14:14:44.835Z,93.10
2019-04-24T14:22:08.881Z,93.50
2019-04-24T14:24:45.297Z,92.60
2019-04-24T14:27:17.127Z,92.90
2019-04-24T14:29:48.657Z,92.90
2019-04-24T14:32:14.604Z,93.30
2019-04-24T14:35:16.109Z,93.30
2019-04-24T14:37:51.885Z,93.70
2019-04-24T14:40:20.679Z,93.30
2019-04-24T14:45:31.210Z,92.90
2019-04-24T14:47:45.655Z,93.70
2019-04-24T14:50:33.148Z,93.00
2019-04-24T14:53:09.782Z,92.60
2019-04-24T14:55:31.008Z,91.80
2019-04-24T15:00:32.867Z,92.70
2019-04-24T15:03:11.708Z,92.60
2019-04-24T15:06:01.230Z,92.30
2019-04-24T15:11:01.588Z,92.20
2019-04-24T15:16:32.235Z,91.50
2019-04-24T15:18:59.710Z,91.40
2019-04-24T15:21:16.432Z,90.50
2019-04-24T15:24:14.253Z,90.70
2019-04-24T15:31:27.497Z,90.60
2019-04-24T15:34:10.297Z,91.00
2019-04-24T15:36:33.527Z,91.30
2019-04-24T15:39:16.780Z,91.60
2019-04-24T15:41:51.856Z,91.10
2019-04-24T15:44:17.732Z,91.20
2019-04-24T15:46:57.246Z,90.70
2019-04-24T15:49:27.996Z,91.50
2019-04-24T15:51:32.546Z,92.30
2019-04-24T15:54:00.751Z,92.20
2019-04-24T15:56:33.211Z,92.20
2019-04-24T15:59:23.833Z,92.20
2019-04-24T16:02:19.227Z,92.90
2019-04-24T16:04:49.199Z,93.50
2019-04-24T16:06:50.156Z,92.90
2019-04-24T16:09:26.827Z,93.00
2019-04-24T16:11:58.793Z,93.50
2019-04-24T16:14:53.004Z,93.10
2019-04-24T16:17:37.278Z,93.70
2019-04-24T16:20:08.658Z,94.10
2019-04-24T16:22:40.630Z,93.70
2019-04-24T16:27:52.208Z,94.40
2019-04-24T16:46:36.819Z,95.30
2019-04-24T16:51:14.667Z,95.80
2019-04-24T16:53:50.050Z,95.70
2019-04-24T16:56:24.388Z,96.10
2019-04-24T16:58:49.207Z,96.10
2019-04-24T17:01:40.567Z,96.60
2019-04-24T17:06:47.539Z,96.70
2019-04-24T17:09:07.006Z,97.00
2019-04-24T17:11:45.505Z,96.80
2019-04-24T17:14:27.548Z,97.00
2019-04-24T17:25:14.732Z,98.20
2019-04-24T17:27:55.365Z,98.60
2019-04-24T17:30:28.810Z,98.90
2019-04-24T17:33:01.692Z,99.00
2019-04-24T17:35:30.352Z,99.40
2019-04-24T17:37:32.340Z,99.90
2019-04-24T17:40:28.639Z,99.90
2019-04-24T17:43:22.337Z,99.90
2019-04-24T17:46:04.832Z,99.90
2019-04-24T17:48:28.541Z,99.90
2019-04-24T17:51:15.409Z,99.90
2019-04-24T17:53:46.684Z,99.90
2019-04-24T17:58:21.452Z,99.90
2019-04-24T18:00:57.774Z,99.90
2019-04-24T18:03:29.911Z,99.90
2019-04-24T18:06:02.448Z,99.90
2019-04-24T18:08:33.874Z,99.90
2019-04-24T18:11:05.944Z,99.90
2019-04-24T18:13:37.794Z,99.90
2019-04-24T18:16:09.579Z,99.90
2019-04-24T18:18:42.670Z,99.90
2019-04-24T18:21:15.995Z,99.90
2019-04-24T18:23:47.649Z,99.90
2019-04-24T18:26:34.095Z,99.90
2019-04-24T18:29:05.474Z,99.90
2019-04-24T18:31:37.080Z,99.90
2019-04-24T18:34:08.364Z,99.90
2019-04-24T18:36:41.303Z,99.90
2019-04-24T18:39:13.182Z,99.90
2019-04-24T18:41:44.866Z,99.90
2019-04-24T18:44:16.619Z,99.90
2019-04-24T18:46:48.307Z,99.90
2019-04-24T18:49:19.946Z,99.90
2019-04-24T18:51:52.335Z,99.90
2019-04-24T18:54:25.122Z,99.90
2019-04-24T18:56:57.433Z,99.90
2019-04-24T18:59:28.932Z,99.90
2019-04-24T19:02:01.338Z,99.90
2019-04-24T19:04:33.223Z,99.90
2019-04-24T19:07:06.865Z,99.90
2019-04-24T19:09:38.510Z,99.90
2019-04-24T19:12:12.621Z,99.90
2019-04-24T19:14:43.836Z,99.90
2019-04-24T19:17:15.441Z,99.90
2019-04-24T19:19:47.730Z,99.90
2019-04-24T19:22:19.661Z,99.90
2019-04-24T19:24:51.536Z,99.90
2019-04-24T19:27:22.850Z,99.90
2019-04-24T19:29:54.400Z,99.90
2019-04-24T19:32:25.745Z,99.90
2019-04-24T19:34:57.639Z,99.90
2019-04-24T19:37:31.160Z,99.90
2019-04-24T19:40:02.587Z,99.90
2019-04-24T19:42:34.413Z,99.90
2019-04-24T19:45:06.588Z,99.90
2019-04-24T19:47:39.147Z,99.90
2019-04-24T19:50:12.609Z,99.90
2019-04-24T19:52:44.531Z,99.90
2019-04-24T19:55:17.351Z,99.90
2019-04-24T19:57:50.891Z,99.90
2019-04-24T20:00:23.708Z,99.90
2019-04-24T20:02:55.456Z,99.90
2019-04-24T20:05:27.330Z,99.90
2019-04-24T20:07:59.190Z,99.90
2019-04-24T20:10:55.684Z,99.90
2019-04-24T20:13:27.331Z,99.90
2019-04-24T20:15:58.421Z,99.90
2019-04-24T20:18:31.849Z,99.90
2019-04-24T20:21:03.243Z,99.90
2019-04-24T20:23:36.960Z,99.90
2019-04-24T20:26:07.872Z,99.90
2019-04-24T20:28:39.215Z,99.90
2019-04-24T20:31:11.723Z,99.90
2019-04-24T20:33:43.766Z,99.90
2019-04-24T20:36:15.091Z,99.90
2019-04-24T20:38:46.720Z,99.90
2019-04-24T20:41:19.153Z,99.90
2019-04-24T20:43:51.877Z,99.90
2019-04-24T20:46:23.902Z,99.90
2019-04-24T20:48:55.615Z,99.90
2019-04-24T20:51:27.166Z,99.90
2019-04-24T20:53:58.718Z,99.90
2019-04-24T20:56:32.041Z,99.90
2019-04-24T20:59:03.946Z,99.90
2019-04-24T21:01:35.856Z,99.90
2019-04-24T21:04:07.964Z,99.90
2019-04-24T21:06:43.164Z,99.90
2019-04-24T21:09:32.503Z,99.90
2019-04-24T21:12:04.300Z,99.90
2019-04-24T21:14:35.538Z,99.90
2019-04-24T21:17:07.606Z,99.90
2019-04-24T21:19:39.540Z,99.90
2019-04-24T21:22:11.692Z,99.90
2019-04-24T21:24:43.586Z,99.90
2019-04-24T21:27:14.858Z,99.90
2019-04-24T21:29:46.773Z,99.90
2019-04-24T21:32:18.321Z,99.90
2019-04-24T21:34:49.989Z,99.90
2019-04-24T21:37:21.932Z,99.90
2019-04-24T21:39:53.937Z,99.90
2019-04-24T21:42:25.991Z,99.90
2019-04-24T21:44:57.277Z,99.90
2019-04-24T21:47:28.964Z,99.90
2019-04-24T21:50:01.603Z,99.90
2019-04-24T21:52:34.890Z,99.90
2019-04-24T21:55:06.449Z,99.90
2019-04-24T21:57:56.520Z,99.90
2019-04-24T22:00:49.430Z,99.90
2019-04-24T22:03:48.630Z,99.90
2019-04-24T22:06:25.767Z,99.90
2019-04-24T22:08:57.443Z,99.90
2019-04-24T22:11:30.405Z,99.90
2019-04-24T22:14:02.022Z,99.90
2019-04-24T22:16:33.759Z,99.90
2019-04-24T22:19:05.445Z,99.90
2019-04-24T22:21:39.339Z,99.90
2019-04-24T22:24:18.674Z,99.90
2019-04-24T22:26:52.102Z,99.90
2019-04-24T22:29:23.859Z,99.90
2019-04-24T22:32:04.509Z,99.90
2019-04-24T22:34:42.180Z,99.90
2019-04-24T22:37:14.098Z,99.90
2019-04-24T22:39:54.817Z,99.90
2019-04-24T22:42:27.379Z,99.90
2019-04-24T22:45:00.158Z,99.90
2019-04-24T22:47:32.599Z,99.90
2019-04-24T22:50:04.760Z,99.90
2019-04-24T22:52:36.862Z,99.90
2019-04-24T22:55:15.907Z,99.90
2019-04-24T22:57:47.318Z,99.90
2019-04-24T23:00:30.739Z,99.90
2019-04-24T23:03:03.349Z,99.90
2019-04-24T23:05:35.506Z,99.90
2019-04-24T23:08:07.333Z,99.90
2019-04-24T23:10:41.204Z,99.90
2019-04-24T23:13:13.647Z,99.90
2019-04-24T23:15:45.230Z,99.90
2019-04-24T23:18:16.918Z,99.90
2019-04-24T23:21:01.557Z,99.90
2019-04-24T23:23:54.612Z,99.90
2019-04-24T23:26:48.347Z,99.90
2019-04-24T23:29:22.778Z,99.90
2019-04-24T23:32:31.803Z,99.90
2019-04-24T23:35:03.251Z,99.90
2019-04-24T23:37:34.462Z,99.90
2019-04-24T23:40:08.677Z,99.90
2019-04-24T23:42:40.372Z,99.90
2019-04-24T23:45:12.287Z,99.90
2019-04-24T23:47:44.226Z,99.90
2019-04-24T23:50:15.733Z,99.90
2019-04-24T23:52:47.488Z,99.90
2019-04-24T23:55:19.767Z,99.90
2019-04-24T23:57:51.315Z,99.90
